FW3872 Weather Reports


Display with metric or nautical units.
time (UTC)temp
F
wind
direction
speed
MPH
gust
MPH
rain 1hr
in
rain 24hr
in
rain mn
in
humidity
%
barometer
mb
20191017224614 68 45 0.0 0.0 0.00 0.00 0.00 65 1016.8
20191017224556 68 69 0.0 0.0 0.00 0.00 0.00 73 1013.4
20191017223202 68 82 0.0 0.0 0.00 0.00 0.00 63 1016.9
20191017223118 68 55 0.0 0.0 0.00 0.00 0.00 63 1016.8
20191017223054 68 69 0.0 0.0 0.00 0.00 0.00 68 1013.5
20191017221648 68 68 0.0 0.0 0.00 0.00 0.00 64 1016.9
20191017221624 68 69 0.0 0.0 0.00 0.00 0.00 66 1013.5
20191017220144 69 73 0.0 0.0 0.00 0.00 0.00 64 1017.1
20191017220051 69 69 0.0 0.0 0.00 0.00 0.00 65 1013.5
20191017214628 69 48 0.0 1.0 0.00 0.00 0.00 62 1017.0
20191017214555 69 69 0.0 1.0 0.00 0.00 0.00 63 1013.4
20191017213127 69 69 0.0 2.0 0.00 0.00 0.00 63 1013.4
20191017213109 69 60 0.0 0.0 0.00 0.00 0.00 62 1016.9
20191017211636 69 62 0.0 0.0 0.00 0.00 0.00 62 1016.9
20191017211533 69 42 0.0 2.0 0.00 0.00 0.00 63 1013.4
20191017210144 69 59 0.0 1.0 0.00 0.00 0.00 62 1016.9
20191017210052 69 38 0.0 1.0 0.00 0.00 0.00 61 1013.5
20191017204629 69 80 0.0 0.0 0.00 0.00 0.00 62 1017.1
20191017204614 69 38 0.0 1.0 0.00 0.00 0.00 61 1013.6
20191017203129 70 323 0.0 1.0 0.00 0.00 0.00 61 1013.9
20191017203123 69 67 0.0 0.0 0.00 0.00 0.00 60 1017.4
20191017201629 69 51 0.0 1.0 0.00 0.00 0.00 60 1017.6
20191017201601 70 309 0.0 2.0 0.00 0.00 0.00 60 1014.1
20191017200115 68 51 0.0 0.0 0.00 0.00 0.00 62 1017.4
20191017200030 70 38 0.0 3.0 0.00 0.00 0.00 61 1013.9
20191017194624 68 69 0.0 4.0 0.00 0.00 0.00 61 1017.3
20191017194534 69 40 0.0 2.0 0.00 0.00 0.00 62 1013.8
20191017193218 68 71 0.0 0.0 0.00 0.00 0.00 64 1017.3
20191017193036 69 325 0.0 2.0 0.00 0.00 0.00 59 1013.7
20191017191640 68 49 0.0 0.0 0.00 0.00 0.00 63 1017.3
20191017191558 69 18 0.0 1.0 0.00 0.00 0.00 61 1013.7
20191017190021 69 321 0.0 1.0 0.00 0.00 0.00 62 1014.0
20191017184609 69 37 0.0 3.0 0.00 0.00 0.00 63 1014.2
20191017184548 67 61 0.0 1.0 0.00 0.00 0.00 64 1017.8
20191017183129 67 55 0.0 1.0 0.00 0.00 0.00 68 1017.8
20191017183102 69 327 0.0 3.0 0.00 0.00 0.00 63 1014.3
20191017181548 69 313 0.0 4.0 0.00 0.00 0.00 63 1014.5
20191017181546 67 49 0.0 6.0 0.00 0.00 0.00 67 1018.2
20191017180049 67 84 0.0 2.0 0.00 0.01 0.00 69 1018.6
20191017180035 68 360 0.0 5.0 0.00 0.00 0.00 62 1015.0
20191017174555 66 62 0.0 5.0 0.00 0.01 0.00 66 1018.9
20191017174526 68 349 0.0 3.0 0.00 0.01 0.00 64 1015.3
20191017173033 66 61 0.0 3.0 0.00 0.01 0.00 66 1019.0
20191017171536 65 70 3.0 11.0 0.00 0.01 0.00 69 1019.2
20191017171517 67 35 0.0 5.0 0.00 0.01 0.00 65 1015.6
20191017170051 64 53 1.0 7.0 0.00 0.01 0.00 69 1019.5
20191017170041 66 333 1.0 4.0 0.00 0.01 0.00 66 1015.8
20191017164525 64 55 3.0 9.0 0.00 0.01 0.00 70 1019.5
20191017164513 66 61 0.0 4.0 0.00 0.01 0.00 68 1016.0
20191017163027 64 53 4.0 10.0 0.00 0.01 0.00 71 1019.7
20191017163005 65 23 0.0 4.0 0.00 0.01 0.00 68 1016.2
20191017161522 63 59 2.0 7.0 0.00 0.01 0.00 71 1020.0
20191017160134 64 54 0.0 4.0 0.00 0.01 0.00 70 1016.3
20191017160021 63 74 4.0 10.0 0.00 0.11 0.00 71 1019.8
20191017154714 64 50 0.0 3.0 0.00 0.10 0.00 70 1016.3
20191017154517 62 78 3.0 11.0 0.00 0.11 0.00 75 1019.8
20191017153200 63 5 0.0 3.0 0.00 0.10 0.00 72 1016.6
20191017153007 62 63 4.0 10.0 0.00 0.11 0.00 76 1020.0
20191017151658 62 15 0.0 4.0 0.00 0.10 0.00 72 1016.8
20191017151518 61 70 4.0 11.0 0.00 0.11 0.00 75 1020.1
20191017150209 61 67 2.0 10.0 0.00 0.11 0.00 76 1020.4
20191017150116 62 40 1.0 7.0 0.00 0.10 0.00 74 1016.8
20191017144718 60 355 0.0 6.0 0.00 0.33 0.00 75 1016.8
20191017144705 60 46 6.0 11.0 0.00 0.63 0.00 77 1020.3
20191017143159 59 61 3.0 10.0 0.00 0.63 0.00 80 1020.4
20191017143155 60 360 1.0 6.0 0.00 0.33 0.00 77 1016.9
20191017141715 58 71 3.0 9.0 0.00 0.63 0.00 82 1020.5
20191017141644 59 72 0.0 4.0 0.00 0.33 0.00 77 1016.9
20191017140135 59 57 4.0 12.0 0.00 0.63 0.00 76 1020.5
20191017140054 58 32 0.0 5.0 0.00 0.33 0.00 80 1016.8
20191017134611 58 5 1.0 7.0 0.00 0.39 0.00 80 1016.5
20191017134606 57 39 6.0 12.0 0.00 0.73 0.00 76 1020.2
20191017133131 56 57 7.0 13.0 0.00 0.73 0.00 78 1020.1
20191017133116 56 63 0.0 4.0 0.00 0.39 0.00 82 1016.6
20191017131728 56 54 6.0 12.0 0.00 0.73 0.00 79 1019.8
20191017131632 56 71 1.0 6.0 0.00 0.39 0.00 83 1016.4
20191017130204 55 67 4.0 11.0 0.00 0.73 0.00 80 1019.7
20191017130132 55 24 1.0 5.0 0.00 0.39 0.00 84 1016.3
20191017124657 55 19 4.0 12.0 0.00 0.73 0.00 81 1019.6
20191017124602 55 360 0.0 5.0 0.00 0.39 0.00 85 1016.2
20191017123207 54 46 4.0 10.0 0.00 0.73 0.00 81 1019.3
20191017123058 55 56 0.0 6.0 0.00 0.39 0.00 84 1015.8
20191017121615 54 36 4.0 8.0 0.00 0.73 0.00 81 1019.0
20191017121546 55 5 0.0 5.0 0.00 0.39 0.00 84 1015.6
20191017120111 54 62 3.0 14.0 0.00 0.73 0.00 80 1018.9
20191017120107 55 59 0.0 6.0 0.00 0.39 0.00 84 1015.5
20191017114635 55 54 0.0 4.0 0.00 0.39 0.00 84 1015.5
20191017114552 54 5 5.0 13.0 0.00 0.73 0.00 80 1018.8
20191017113051 55 56 0.0 5.0 0.00 0.39 0.00 83 1015.4
20191017111620 55 80 0.0 7.0 0.00 0.39 0.00 82 1015.4
20191017110127 56 77 0.0 6.0 0.00 0.39 0.00 82 1015.1
20191017110105 55 95 5.0 17.0 0.00 0.73 0.00 78 1018.6
20191017104544 56 46 5.0 11.0 0.00 0.73 0.00 77 1018.3
20191017104527 56 73 1.0 7.0 0.00 0.39 0.00 81 1014.9
20191017103052 56 63 4.0 12.0 0.00 0.73 0.00 77 1018.3
20191017103031 56 15 0.0 6.0 0.00 0.39 0.00 81 1014.8
20191017101618 56 28 6.0 14.0 0.00 0.73 0.00 78 1018.4
20191017100133 56 42 0.0 4.0 0.00 0.39 0.00 82 1015.0
20191017100037 56 49 6.0 14.0 0.00 0.73 0.00 78 1018.5
20191017094600 56 34 9.0 16.0 0.00 0.73 0.00 77 1018.3
20191017094552 57 355 1.0 9.0 0.00 0.39 0.00 81 1014.7
20191017093113 56 33 10.0 18.0 0.00 0.73 0.00 78 1017.9
20191017093041 57 71 1.0 7.0 0.00 0.39 0.00 81 1014.5
20191017091559 56 26 9.0 15.0 0.00 0.73 0.00 78 1017.9
20191017091527 57 37 2.0 7.0 0.00 0.39 0.00 81 1014.5
20191017090046 57 355 1.0 7.0 0.00 0.39 0.00 81 1014.4
20191017090042 56 42 9.0 17.0 0.00 0.73 0.00 78 1017.8
20191017084608 57 355 7.0 16.0 0.00 0.73 0.00 79 1017.8
20191017084605 57 24 1.0 8.0 0.00 0.40 0.00 82 1014.4
20191017083059 57 13 1.0 6.0 0.00 0.40 0.00 82 1014.5
20191017083015 57 27 9.0 16.0 0.00 0.73 0.00 78 1018.0
20191017081537 58 71 0.0 5.0 0.00 0.40 0.00 83 1014.5
20191017081515 57 360 9.0 18.0 0.00 0.73 0.00 78 1018.0
20191017080016 57 60 8.0 16.0 0.00 0.73 0.00 79 1018.3
20191017080011 58 82 0.0 4.0 0.00 0.40 0.00 82 1014.8
20191017074536 58 360 0.0 7.0 0.00 0.40 0.00 82 1014.9
20191017074516 58 30 7.0 13.0 0.00 0.73 0.00 79 1018.5
20191017073021 59 16 0.0 4.0 0.00 0.40 0.00 82 1015.0
20191017073008 58 24 5.0 17.0 0.00 0.73 0.00 78 1018.4
20191017071722 59 25 6.0 17.0 0.00 0.73 0.00 78 1018.6
20191017071514 59 53 1.0 8.0 0.00 0.40 0.00 82 1015.0
20191017070154 59 9 7.0 14.0 0.00 0.73 0.00 78 1018.7
20191017070010 60 30 1.0 6.0 0.00 0.40 0.00 82 1015.0
20191017064707 59 13 7.0 14.0 0.00 0.78 0.00 78 1018.8
20191017064502 60 5 1.0 7.0 0.00 0.45 0.00 82 1015.3
20191017063243 61 25 0.0 4.0 0.00 0.45 0.00 82 1015.3
20191017063133 60 27 7.0 11.0 0.00 0.78 0.00 78 1018.9
20191017063003 61 14 0.0 4.0 0.00 0.45 0.00 82 1015.3
20191017061714 61 360 0.0 6.0 0.00 0.45 0.00 81 1015.2
20191017061606 61 17 6.0 15.0 0.00 0.78 0.00 78 1018.8
20191017060350 61 17 1.0 6.0 0.00 0.45 0.00 81 1015.1
20191017060234 61 41 4.0 13.0 0.00 0.78 0.00 78 1018.6
20191017054722 62 73 0.0 7.0 0.00 0.53 0.00 82 1015.0
20191017054607 61 32 5.0 14.0 0.00 0.84 0.00 78 1018.6
20191017053244 62 39 0.0 5.0 0.00 0.53 0.00 82 1015.1
20191017053114 62 31 6.0 13.0 0.00 0.84 0.00 78 1018.8
20191017051811 62 14 0.0 7.0 0.00 0.53 0.00 82 1015.3
20191017051620 62 44 6.0 14.0 0.00 0.84 0.00 78 1018.8
20191017050203 62 5 7.0 14.0 0.00 0.84 0.00 80 1019.1
20191017050129 63 18 0.0 4.0 0.00 0.53 0.00 82 1015.6
20191017044754 63 360 0.0 5.0 0.00 0.65 0.53 83 1015.7
20191017044556 62 43 7.0 12.0 0.00 1.01 0.84 80 1019.2
20191017043138 63 34 0.0 5.0 0.00 0.65 0.53 83 1015.8
20191017043052 63 360 8.0 15.0 0.00 1.01 0.84 80 1019.3
20191017041624 64 5 1.0 8.0 0.00 0.65 0.53 83 1016.1
20191017041541 63 26 7.0 15.0 0.00 1.01 0.84 80 1019.6
20191017040022 64 26 4.0 13.0 0.00 1.02 0.84 80 1019.6
20191017034641 66 44 1.0 7.0 0.00 0.68 0.53 82 1016.3
20191017034528 65 38 5.0 13.0 0.00 1.02 0.84 80 1019.9
20191017033132 66 51 1.0 9.0 0.00 0.68 0.53 82 1016.2
20191017033025 66 5 5.0 10.0 0.00 1.02 0.84 80 1019.7
20191017031618 67 47 1.0 8.0 0.00 0.68 0.53 82 1015.6
20191017031515 66 5 4.0 11.0 0.00 1.02 0.84 80 1019.3
20191017030100 68 14 1.0 8.0 0.00 0.68 0.53 83 1015.4
20191017030013 67 360 6.0 18.0 0.00 1.02 0.84 79 1019.0
20191017024550 69 360 0.0 9.0 0.00 0.68 0.53 85 1015.4
20191017024507 68 22 8.0 15.0 0.00 1.02 0.84 81 1018.9
20191017023028 69 360 2.0 10.0 0.00 0.68 0.53 84 1015.2
20191017023006 69 11 7.0 18.0 0.00 1.02 0.84 81 1018.8
20191017021549 70 296 3.0 10.0 0.00 0.68 0.53 84 1014.9
20191017021501 69 5 6.0 18.0 0.00 1.02 0.84 80 1018.4
20191017020133 70 344 7.0 17.0 0.00 1.02 0.84 80 1017.9
20191017020040 71 331 1.0 9.0 0.00 0.68 0.53 84 1014.5
20191017014625 71 26 6.0 18.0 0.00 1.02 0.84 82 1017.9
20191017014534 72 355 2.0 8.0 0.00 0.68 0.53 86 1014.3
20191017013232 71 355 4.0 13.0 0.00 1.02 0.84 82 1017.5
20191017013048 72 5 2.0 9.0 0.00 0.68 0.53 85 1014.2
20191017011744 71 330 4.0 14.0 0.00 1.02 0.84 83 1017.8
20191017011520 72 324 0.0 7.0 0.00 0.68 0.53 85 1014.3
20191017010141 71 355 3.0 8.0 0.00 1.02 0.84 84 1017.7
20191017010028 72 344 0.0 5.0 0.00 0.68 0.53 86 1014.2
20191017004620 72 360 2.0 7.0 0.00 1.02 0.84 84 1017.4
20191017004550 73 299 0.0 4.0 0.00 0.68 0.53 87 1013.9
20191017003152 72 323 2.0 8.0 0.00 1.02 0.84 83 1017.3
20191017003039 73 11 0.0 5.0 0.00 0.68 0.53 85 1013.8
20191017001554 73 16 2.0 6.0 0.00 1.02 0.84 83 1016.6
20191017001524 74 360 0.0 6.0 0.00 0.68 0.53 86 1013.1
20191017000131 73 349 2.0 6.0 0.00 1.02 0.84 83 1016.2
20191017000016 74 17 0.0 6.0 0.00 0.68 0.53 86 1012.6
20191016234617 73 16 4.0 11.0 0.00 1.02 0.84 83 1015.6
20191016234539 74 22 0.0 5.0 0.00 0.68 0.53 86 1012.2
20191016233139 73 26 2.0 3.0 0.00 1.02 0.84 84 1015.4
20191016233020 75 57 0.0 1.0 0.00 0.68 0.53 87 1011.9
20191016231614 74 15 2.0 3.0 0.00 1.02 0.84 83 1015.2
20191016231526 75 61 0.0 0.0 0.00 0.68 0.53 86 1011.7
20191016230017 75 61 0.0 1.0 0.00 0.68 0.53 85 1011.5